Terminal Aerodrome Forecast
Issued by NWS

Home | Current Version | Previous Version | Text Only | Print | Product List | Glossary Off
Versions: 1 2 3 4 5 6 7 8 9 10 11 12 13 14 15 16 17

000
FTUS42 KMHX 200532
TAFOAJ
TAF
KOAJ 200532Z 2006/2106 12003KT P6SM SCT050
     FM200700 00000KT 3SM BR SCT008 BKN020
      TEMPO 2008/2012 1SM BR BKN008
     FM201300 25004KT P6SM BKN035
     FM201700 23007KT P6SM VCSH SCT045
     FM210000 21005KT P6SM SCT040
      AMD LTD TO CLD VIS AND WIND=

USA.gov is the U.S. government's official web portal to all federal, state and local government web resources and services.